LEPA/PMI METAR and TAF weather

Enter ICAO airport designator
Station Type Date Time Source
LEPA METAR 2022/06/26 07:30 UTC NOAA

LEPA 260730Z 07005KT 030V100 9999 FEW040 27/21 Q1010 NOSIG


Station Type Date Time Source
LEPA Decoded METAR 2022/06/26 07:30 UTC NOAA

Palma De Mallorca / Son San Juan, Spain (LEPA) 39-33N 002-44E 8M
Jun 26, 2022 - 03:30 AM EDT / 2022.06.26 0730 UTC
Wind: from the ENE (070 degrees) at 6 MPH (5 KT) (direction variable):0
Visibility: greater than 7 mile(s):0
Sky conditions: mostly clear
Temperature: 80 F (27 C)
Dew Point: 69 F (21 C)
Relative Humidity: 69%
Pressure (altimeter): 29.83 in. Hg (1010 hPa)
ob: LEPA 260730Z 07005KT 030V100 9999 FEW040 27/21 Q1010 NOSIG
cycle: 7

Station Type Date Time Source
LEPA TAF 2022/06/26 06:30 UTC NOAA

TAF LEPA 260500Z 2606/2706 VRB03KT 9999 FEW030 TX32/2612Z TN18/2606Z
TEMPO 2606/2610 06010KT PROB30
TEMPO 2609/2615 TS FEW080CB
BECMG 2610/2612 22010KT
BECMG 2619/2621 VRB03KT

Example: see airport list